Weather observations for the past three days for
Harvey Municipal Airport
Imperial (Metric)
Date Time (cdt) Wind (mph) Vis. (mi.) Weather Sky Cond. Temperature (ºF) Relative Humidity Wind Chill (°F) Heat Index (°F) Pressure Precipitation (in)
Air Dwpt 6 hour altimeter (in) sea level (mb) 1 hr 3 hr 6 hr
Max. Min.
09 10:35 N 12 10.00 Fair CLR 46.4 30.2 53% 42 29.99 0.0
09 10:15 N 13 10.00 Fair CLR 46.4 30.2 53% 41 29.99 0.0
09 09:55 N 10 G 17 10.00 Fair CLR 44.6 32 61% 40 29.98 0.0
09 09:35 N 13 10.00 Fair CLR 44.6 32 61% 39 29.97 0.0
09 09:15 N 13 10.00 A Few Clouds FEW060 42.8 33.8 71% 37 29.97 0.0
09 08:55 N 10 10.00 Mostly Cloudy BKN060 41 33.8 76% 35 29.96 0.0
09 08:35 N 9 10.00 Overcast OVC060 39.2 32 75% 34 29.96 0.0
09 08:15 N 8 10.00 Light Unknown Precip OVC060 39.2 35.6 87% 34 29.95 0.0
09 07:55 NW 6 10.00 Overcast OVC060 37.4 35.6 93% 33 29.94 0.0
09 07:35 NW 6 10.00 Mostly Cloudy BKN060 33.8 33.8 100% 29 29.93 0.0
09 07:15 N 7 10.00 A Few Clouds FEW060 33.8 33.8 100% 28 29.92 0.0
09 06:55 N 8 10.00 Fair CLR 32 32 100% 25 29.9 0.0
09 06:35 N 9 10.00 Fair CLR 32 32 100% 25 29.89 0.0
09 06:15 N 10 10.00 Light Unknown Precip CLR 32 32 100% 24 29.88 0.0
09 05:55 N 10 10.00 A Few Clouds FEW060 32 32 100% 24 29.87 0.0
09 05:35 N 9 10.00 Light Unknown Precip FEW060 32 32 100% 25 29.86 0.0
09 05:15 N 7 10.00 Fair CLR 32 32 100% 26 29.85 0.0
09 04:55 N 7 10.00 Light Unknown Precip CLR 32 32 100% 26 29.85 0.0
09 04:35 N 7 10.00 Fair CLR 33.8 33.8 100% 28 29.84 0.0
09 04:15 N 8 10.00 Fair CLR 33.8 33.8 100% 28 29.83 0.0
09 03:35 N 9 10.00 Unknown Precip CLR 35.6 35.6 100% 29 29.81 0.0
09 03:15 N 10 10.00 Unknown Precip CLR 35.6 35.6 100% 29 29.8 0.0
09 02:55 NW 10 10.00 Unknown Precip CLR 37.4 37.4 100% 31 29.79 0.0
09 02:35 NW 9 9.00 Light Unknown Precip CLR 35.6 35.6 100% 29 29.79 0.0
09 02:15 NW 10 8.00 Fair CLR 35.6 35.6 100% 29 29.78 0.0
09 01:55 NW 8 9.00 Fair CLR 35.6 35.6 100% 30 29.78 0.0
09 01:35 NW 10 10.00 Fair CLR 37.4 37.4 100% 31 29.78 0.0
09 01:15 NW 10 10.00 Fair CLR 37.4 37.4 100% 31 29.78 0.0
09 00:55 NW 10 10.00 Fair CLR 39.2 39.2 100% 33 29.77 0.0
09 00:35 NW 9 10.00 A Few Clouds FEW036 39.2 39.2 100% 34 29.77 0.0
09 00:15 NW 6 5.00 Fog/Mist CLR 39.2 39.2 100% 36 29.77 0.0
08 23:55 NW 5 10.00 Fair CLR 42.8 42.8 100% 41 29.76 0.0
08 23:35 Calm 10.00 Fair CLR 42.8 42.8 100% 29.75 0.0
08 23:15 Calm 10.00 A Few Clouds FEW070 FEW110 44.6 44.6 100% 29.74 0.0
08 22:55 Calm 10.00 Mostly Cloudy FEW060 SCT075 BKN110 44.6 44.6 100% 29.73 0.0
08 22:35 NE 5 10.00 Overcast SCT060 BKN080 OVC110 46.4 46.4 100% 45 29.73 0.0
08 22:15 NE 6 6.00 Fog/Mist SCT035 BKN060 OVC070 46.4 46.4 100% 44 29.73 0.0
08 21:55 NE 9 8.00 Overcast SCT032 SCT038 OVC050 46.4 46.4 100% 42 29.73 0.0
08 21:35 NE 15 G 24 7.00 Mostly Cloudy FEW029 SCT037 BKN050 48.2 44.6 87% 43 29.73 0.0
08 21:15 N 22 10.00 Overcast and Breezy FEW050 BKN060 OVC075 50 41 71% 44 29.72 0.0
08 20:55 N 25 G 36 9.00 Overcast and Breezy FEW037 BKN060 OVC070 50 41 71% 43 29.71 0.0
08 20:35 N 16 10.00 Mostly Cloudy FEW050 SCT065 BKN075 55.4 42.8 63% 29.69 0.0
08 20:15 N 18 10.00 Mostly Cloudy BKN095 57.2 42.8 59% 29.66 0.0
08 19:55 N 29 G 37 9.00 Mostly Cloudy and Windy FEW055 SCT065 BKN090 57.2 42.8 59% 29.66 0.0
08 19:35 W 17 10.00 Partly Cloudy FEW055 FEW080 SCT090 62.6 35.6 37% 29.63 0.0
08 19:15 W 22 G 29 10.00 A Few Clouds and Breezy FEW080 64.4 35.6 34% 29.61 0.0
08 18:55 SW 8 G 17 9.00 Mostly Cloudy FEW065 SCT075 BKN085 64.4 37.4 37% 29.64 0.0
08 18:35 S 3 10.00 A Few Clouds FEW090 62.6 35.6 37% 29.64 0.0
08 18:15 SW 6 10.00 A Few Clouds FEW070 FEW080 62.6 35.6 37% 29.66 0.0
08 17:55 W 17 G 33 4.00 Mostly Cloudy with Haze FEW036 SCT070 BKN080 60.8 37.4 42% 29.69 0.0
08 17:35 NW 16 10.00 Fair CLR 66.2 32 28% 29.67 0.0
08 17:15 NW 12 G 20 10.00 Fair CLR 66.2 32 28% 29.67 0.0
08 16:55 N 12 10.00 A Few Clouds FEW075 66.2 33.8 30% 29.68 0.0
08 16:35 NW 14 G 22 10.00 Mostly Cloudy FEW060 BKN075 BKN090 66.2 33.8 30% 29.7 0.0
08 16:15 NW 16 G 23 10.00 A Few Clouds FEW090 66.2 33.8 30% 29.7 0.0
08 15:55 NW 18 10.00 Fair CLR 64.4 33.8 32% 29.71 0.0
08 15:35 N 20 9.00 Partly Cloudy FEW075 SCT090 SCT110 64.4 35.6 34% 29.72 0.0
08 15:15 NW 21 9.00 Partly Cloudy and Breezy FEW075 SCT090 SCT110 64.4 32 30% 29.72 0.0
08 14:55 NW 18 G 28 10.00 A Few Clouds FEW075 FEW090 FEW110 66.2 33.8 30% 29.72 0.0
08 14:35 NW 20 G 28 10.00 A Few Clouds FEW070 FEW085 66.2 33.8 30% 29.73 0.0
08 14:15 NW 23 10.00 A Few Clouds and Breezy FEW070 66.2 33.8 30% 29.73 0.0
08 13:55 NW 20 G 26 10.00 Fair CLR 66.2 32 28% 29.74 0.0
08 13:35 NW 17 G 26 10.00 Fair CLR 64.4 32 30% 29.75 0.0
08 13:15 NW 18 G 25 10.00 Fair CLR 64.4 32 30% 29.75 0.0
08 12:55 NW 22 10.00 Fair and Breezy CLR 62.6 32 32% 29.75 0.0
08 12:35 NW 16 G 31 10.00 Fair CLR 62.6 32 32% 29.76 0.0
08 12:15 NW 25 10.00 Fair and Breezy CLR 60.8 30.2 31% 29.76 0.0
08 11:55 N 22 G 32 10.00 Fair and Breezy CLR 60.8 32 34% 29.77 0.0
08 11:35 N 22 10.00 Fair and Breezy CLR 60.8 32 34% 29.76 0.0
08 11:15 NW 24 G 30 10.00 Fair and Breezy CLR 59 32 36% 29.77 0.0
08 10:55 NW 17 10.00 Fair CLR 59 30.2 34% 29.77 0.0
08 10:35 N 20 10.00 Fair CLR 59 30.2 34% 29.76 0.0
08 10:15 N 14 10.00 Fair CLR 57.2 30.2 36% 29.76 0.0
08 09:55 N 13 G 21 10.00 Fair CLR 55.4 28.4 36% 29.76 0.0
08 09:35 NW 18 10.00 Fair CLR 55.4 26.6 33% 29.76 0.0
08 09:15 NW 16 G 24 10.00 Fair CLR 53.6 23 30% 29.76 0.0
08 08:55 NW 16 10.00 Fair CLR 53.6 23 30% 29.75 0.0
08 08:35 NW 16 10.00 Fair CLR 51.8 24.8 35% 29.74 0.0
08 08:15 NW 16 8.00 Fair CLR 50 24.8 37% 45 29.74 0.0
08 07:55 W 12 10.00 Fair CLR 46.4 26.6 46% 42 29.74 0.0
08 07:35 W 9 10.00 Fair CLR 42.8 26.6 53% 38 29.73 0.0
08 07:15 SW 7 10.00 Fair CLR 37.4 26.6 65% 33 29.72 0.0
08 06:55 SW 6 10.00 Fair CLR 35.6 24.8 65% 31 29.72 0.0
08 06:35 SW 7 10.00 Fair CLR 32 23 69% 26 29.72 0.0
08 06:15 SW 8 10.00 Fair CLR 32 23 69% 25 29.73 0.0
08 05:55 SW 7 10.00 Fair CLR 35.6 24.8 65% 31 29.73 0.0
08 05:35 SW 8 10.00 A Few Clouds FEW110 35.6 24.8 65% 30 29.74 0.0
08 05:15 SW 9 10.00 Mostly Cloudy BKN110 35.6 24.8 65% 29 29.74 0.0
08 04:55 SW 8 10.00 Overcast OVC110 35.6 24.8 65% 30 29.75 0.0
08 04:35 SW 9 10.00 Mostly Cloudy FEW080 BKN110 35.6 21.2 56% 29 29.75 0.0
08 04:15 SW 10 10.00 Mostly Cloudy SCT080 BKN110 35.6 21.2 56% 29 29.75 0.0
08 03:55 SW 12 10.00 Mostly Cloudy BKN080 BKN110 35.6 21.2 56% 28 29.75 0.0
08 03:35 SW 8 10.00 Mostly Cloudy BKN080 BKN100 35.6 21.2 56% 30 29.76 0.0
08 03:15 SW 8 10.00 Partly Cloudy SCT080 37.4 21.2 52% 32 29.77 0.0
08 02:55 S 9 10.00 Fair CLR 42.8 19.4 39% 38 29.76 0.0
08 02:35 S 10 10.00 Fair CLR 41 19.4 42% 35 29.76 0.0
08 02:15 S 9 10.00 Partly Cloudy SCT080 SCT110 41 19.4 42% 36 29.77 0.0
08 01:55 S 7 10.00 Mostly Cloudy SCT075 BKN090 BKN110 42.8 19.4 39% 39 29.77 0.0
08 01:35 S 8 10.00 Overcast FEW080 BKN090 OVC110 42.8 19.4 39% 39 29.78 0.0
08 01:15 S 8 10.00 Overcast BKN075 OVC090 42.8 21.2 42% 39 29.78 0.0
08 00:55 S 5 10.00 Overcast BKN075 OVC090 41 21.2 45% 38 29.78 0.0
08 00:35 S 5 10.00 Overcast BKN075 OVC090 42.8 23 46% 41 29.79 0.0
08 00:15 SE 5 10.00 Overcast SCT075 BKN090 OVC110 41 21.2 45% 38 29.79 0.0
07 23:55 SE 5 10.00 Overcast SCT090 OVC120 39.2 17.6 42% 36 29.79 0.0
07 23:35 SE 5 10.00 Mostly Cloudy BKN120 41 19.4 42% 38 29.79 0.0
07 23:15 Calm 10.00 Partly Cloudy SCT110 41 19.4 42% 29.8 0.0
07 22:55 E 3 10.00 Partly Cloudy SCT095 44.6 21.2 39% 29.8 0.0
07 22:35 Calm 10.00 Mostly Cloudy BKN095 42.8 23 46% 29.81 0.0
07 22:15 NE 5 10.00 Fair CLR 42.8 21.2 42% 41 29.81 0.0
07 21:55 NE 6 10.00 A Few Clouds FEW110 42.8 21.2 42% 40 29.8 0.0
07 21:35 N 7 10.00 Mostly Cloudy BKN110 44.6 21.2 39% 41 29.8 0.0
07 21:15 N 7 10.00 A Few Clouds FEW110 46.4 19.4 34% 43 29.8 0.0
07 20:55 N 8 10.00 Fair CLR 48.2 19.4 32% 45 29.79 0.0
07 20:35 N 8 10.00 Fair CLR 51.8 19.4 28% 29.78 0.0
07 20:15 N 10 10.00 Fair CLR 55.4 17.6 23% 29.78 0.0
07 19:55 N 8 G 15 10.00 Fair CLR 57.2 17.6 21% 29.78 0.0
07 19:35 N 12 10.00 Fair CLR 59 15.8 18% 29.77 0.0
07 19:15 N 12 G 17 10.00 Fair CLR 59 15.8 18% 29.77 0.0
07 18:55 NW 14 10.00 Fair CLR 59 15.8 18% 29.77 0.0
07 18:35 N 16 10.00 Fair CLR 59 15.8 18% 29.77 0.0
07 18:15 NW 10 G 22 10.00 Fair CLR 60.8 17.6 19% 29.78 0.0
07 17:55 NW 16 10.00 Fair CLR 60.8 15.8 17% 29.77 0.0
07 17:35 NW 16 G 23 10.00 Fair CLR 60.8 15.8 17% 29.78 0.0
07 17:15 NW 15 10.00 Fair CLR 60.8 15.8 17% 29.78 0.0
07 16:55 W 13 10.00 Fair CLR 60.8 15.8 17% 29.78 0.0
07 16:35 W 14 G 21 10.00 Fair CLR 60.8 15.8 17% 29.79 0.0
07 16:15 W 15 G 22 10.00 Fair CLR 60.8 15.8 17% 29.8 0.0
07 15:15 NW 15 G 22 10.00 Fair CLR 59 17.6 20% 29.81 0.0
07 14:55 W 15 G 21 10.00 Fair CLR 59 15.8 18% 29.82 0.0
07 14:35 NW 12 G 23 10.00 Fair CLR 57.2 17.6 21% 29.82 0.0
07 14:15 NW 16 G 23 10.00 Fair CLR 59 17.6 20% 29.82 0.0
07 13:55 W 14 G 22 10.00 Fair CLR 57.2 17.6 21% 29.83 0.0
07 13:35 NW 10 G 20 10.00 Fair CLR 57.2 15.8 20% 29.83 0.0
07 13:15 NW 14 10.00 Fair CLR 57.2 15.8 20% 29.83 0.0
07 12:55 NW 14 10.00 Fair CLR 55.4 17.6 23% 29.84 0.0
07 12:35 N 9 G 20 10.00 Fair CLR 55.4 17.6 23% 29.85 0.0
07 12:15 NW 16 10.00 Fair CLR 55.4 19.4 24% 29.85 0.0
07 11:55 NW 13 G 20 10.00 Fair CLR 53.6 19.4 26% 29.86 0.0
07 11:35 NW 13 10.00 Fair CLR 53.6 21.2 28% 29.86 0.0
07 11:15 NW 12 G 17 10.00 Fair CLR 53.6 19.4 26% 29.86 0.0
07 10:55 NW 10 10.00 Fair CLR 51.8 19.4 28% 29.87 0.0
07 10:35 W 12 10.00 Fair CLR 51.8 19.4 28% 29.87 0.0
07 10:15 Vrbl 7 G 15 10.00 Fair CLR 51.8 21.2 30% 29.87 0.0
07 09:55 W 10 10.00 Fair CLR 50 21.2 32% 46 29.87 0.0
07 09:35 W 7 10.00 Fair CLR 50 23 35% 48 29.87 0.0
07 09:15 W 6 10.00 Fair CLR 46.4 26.6 46% 44 29.87 0.0
07 08:55 W 8 10.00 Fair CLR 42.8 26.6 53% 39 29.87 0.0
07 08:35 W 7 10.00 Fair CLR 41 26.6 57% 37 29.88 0.0
07 08:15 W 8 10.00 Fair CLR 39.2 26.6 61% 34 29.88 0.0
07 07:55 SW 8 10.00 Fair CLR 35.6 26.6 70% 30 29.88 0.0
07 07:35 SW 7 10.00 Fair CLR 32 26.6 80% 26 29.87 0.0
07 07:15 W 7 10.00 Fair CLR 28.4 24.8 86% 22 29.87 0.0
07 06:55 W 7 10.00 Fair CLR 24.8 23 93% 18 29.87 0.0
07 06:35 SW 7 9.00 Fair CLR 23 21.2 93% 16 29.86 0.0
07 06:15 W 6 10.00 Fair CLR 26.6 24.8 93% 21 29.86 0.0
07 05:55 W 6 10.00 Fair CLR 26.6 24.8 93% 21 29.87 0.0
07 05:35 W 6 10.00 Fair CLR 26.6 24.8 93% 21 29.87 0.0
07 05:15 W 6 10.00 Fair CLR 26.6 24.8 93% 21 29.87 0.0
07 04:55 W 7 10.00 Fair CLR 26.6 24.8 93% 20 29.87 0.0
07 04:35 W 6 10.00 Fair CLR 26.6 24.8 93% 21 29.87 0.0
07 04:15 W 5 10.00 Fair CLR 24.8 24.8 100% 20 29.87 0.0
07 03:55 W 6 10.00 Fair CLR 26.6 23 86% 21 29.87 0.0
07 03:35 SW 6 10.00 Fair CLR 26.6 23 86% 21 29.87 0.0
07 03:15 SW 8 10.00 Fair CLR 26.6 23 86% 19 29.87 0.0
07 02:55 SW 8 10.00 Fair CLR 26.6 21.2 80% 19 29.87 0.0
07 02:35 W 8 10.00 Fair CLR 26.6 21.2 80% 19 29.88 0.0
07 02:15 SW 7 10.00 Fair CLR 28.4 21.2 74% 22 29.87 0.0
07 01:55 SW 7 10.00 Fair CLR 26.6 21.2 80% 20 29.87 0.0
07 01:35 SW 6 10.00 Fair CLR 30.2 21.2 69% 25 29.87 0.0
07 01:15 SW 5 10.00 Fair CLR 32 21.2 64% 28 29.88 0.0
07 00:55 Calm 10.00 Fair CLR 32 21.2 64% 29.88 0.0
07 00:35 Calm 10.00 Fair CLR 32 21.2 64% 29.88 0.0
07 00:15 SW 3 10.00 Fair CLR 32 21.2 64% 29.88 0.0
06 23:55 SW 3 10.00 Fair CLR 35.6 21.2 56% 29.88 0.0
06 23:35 SW 5 10.00 Fair CLR 33.8 21.2 60% 30 29.89 0.0
06 23:15 SW 5 10.00 Fair CLR 32 19.4 60% 28 29.89 0.0
06 22:55 SE 3 10.00 Fair CLR 35.6 19.4 52% 29.89 0.0
06 22:35 E 3 10.00 A Few Clouds FEW080 FEW090 39.2 19.4 45% 29.9 0.0
06 22:15 NE 3 10.00 A Few Clouds FEW080 FEW090 41 21.2 45% 29.9 0.0
06 21:55 Calm 10.00 Fair CLR 41 21.2 45% 29.9 0.0
06 21:35 NW 3 10.00 Partly Cloudy SCT095 42.8 21.2 42% 29.91 0.0
06 21:15 NW 5 10.00 Mostly Cloudy SCT070 BKN100 44.6 19.4 37% 43 29.91 0.0
06 20:55 W 5 10.00 Overcast OVC070 46.4 19.4 34% 45 29.91 0.0
06 20:35 Calm 10.00 Overcast OVC065 46.4 19.4 34% 29.91 0.0
06 20:15 NW 5 10.00 Overcast OVC060 46.4 21.2 37% 45 29.91 0.0
06 19:55 W 8 10.00 Mostly Cloudy BKN060 BKN075 46.4 19.4 34% 43 29.91 0.0
06 19:35 NW 6 9.00 A Few Clouds FEW055 FEW095 48.2 19.4 32% 46 29.92 0.0
06 19:15 NW 9 10.00 Partly Cloudy SCT095 48.2 17.6 29% 45 29.92 0.0
06 18:55 N 6 10.00 Mostly Cloudy SCT075 BKN090 48.2 17.6 29% 46 29.92 0.0
06 18:35 NW 9 10.00 Mostly Cloudy BKN075 BKN090 48.2 17.6 29% 45 29.92 0.0
06 18:15 NW 9 10.00 Mostly Cloudy BKN075 BKN085 48.2 17.6 29% 45 29.92 0.0
06 17:55 NW 7 G 16 10.00 Mostly Cloudy BKN070 BKN080 50 17.6 28% 48 29.93 0.0
06 17:35 Vrbl 6 G 17 10.00 Mostly Cloudy BKN075 50 17.6 28% 48 29.93 0.0
06 17:15 NW 13 10.00 Mostly Cloudy BKN070 50 17.6 28% 46 29.94 0.0
06 16:55 NW 7 G 13 10.00 Partly Cloudy SCT070 48.2 17.6 29% 46 29.94 0.0
06 16:35 W 14 10.00 Mostly Cloudy BKN065 48.2 17.6 29% 43 29.95 0.0
06 16:15 N 6 10.00 Mostly Cloudy BKN065 48.2 17.6 29% 46 29.96 0.0
06 15:55 Vrbl 8 G 14 10.00 Mostly Cloudy BKN065 50 19.4 30% 47 29.97 0.0
06 15:35 Vrbl 7 10.00 Mostly Cloudy BKN060 48.2 17.6 29% 46 29.97 0.0
06 15:15 W 9 G 18 10.00 A Few Clouds FEW060 48.2 19.4 32% 45 29.98 0.0
06 14:55 N 7 G 17 10.00 Mostly Cloudy BKN060 46.4 17.6 32% 43 29.99 0.0
06 14:35 Vrbl 6 G 20 10.00 Mostly Cloudy BKN055 48.2 17.6 29% 46 29.99 0.0
06 14:15 NW 17 10.00 Mostly Cloudy BKN055 48.2 19.4 32% 42 30 0.0
06 13:55 NW 15 10.00 Mostly Cloudy BKN055 44.6 19.4 37% 38 30 0.0
06 13:35 W 9 G 18 10.00 Mostly Cloudy BKN055 BKN065 44.6 19.4 37% 40 30.01 0.0
06 13:15 W 12 10.00 Overcast OVC050 42.8 17.6 36% 37 30.02 0.0
06 12:55 NW 13 G 20 10.00 Mostly Cloudy BKN050 BKN060 42.8 17.6 36% 37 30.03 0.0
06 12:35 NW 14 10.00 Overcast BKN050 OVC055 42.8 17.6 36% 36 30.04 0.0
06 12:15 NW 6 G 15 10.00 Overcast BKN050 OVC055 41 17.6 39% 38 30.04 0.0
06 11:55 N 12 10.00 Overcast OVC050 41 17.6 39% 35 30.05 0.0
06 11:35 N 9 G 16 10.00 Overcast FEW050 OVC060 41 17.6 39% 36 30.05 0.0
06 11:15 N 9 10.00 Overcast OVC060 41 17.6 39% 36 30.05 0.0
06 10:55 NW 8 10.00 Partly Cloudy SCT060 41 19.4 42% 36 30.06 0.0
Date Time (cdt) Wind (mph) Vis. (mi.) Weather Sky Cond. Air Dwpt Max. Min. Relative Humidity Wind Chill (°F) Heat Index (°F) altimeter (in) sea level (mb) 1 hr 3 hr 6 hr
6 hour
Temperature (ºF) Pressure Precipitation (in)